Forside
METAR-TAF:

METAR-TAF

Lufthavne :

Eagle River Union Airport

Eagle River, Wisconsin, USA

Breddekreds: 45-55-54N, længdekreds: 089-16-09W, højde: 501 m

Aktuelle vejr

Denne rapport blev lavet for 25 minutter siden, kl. 11:55 UTC
Vind 6 kt fra sydøst
Temperatur -4°C
Fugtighed 93%
Tryk 1021 hPa
Sigt: 16.1 km
Overskyet i en højde af 1600 ft

METAR: KEGV 241155Z AUTO 13006KT 10SM OVC016 M04/M05 A3016 RMK AO2 T10401047 11040 21077

Tid: 06:20 (12:20 UTC)


TAF: fraværende

Vejrobservationer og prognoser fra mere end 4000 lufthavne (METAR og TAF).

De gule og røde prikker repræsenterer de meteorologiske stationer.

Flyt musen over at se navnet på stationen.

Så klik over at se vejr observationer og prognoser.

At skifte det kort: Klik på de grønne knapper med et sort kors for at zoome ind; på den grønne knap med en bindestreg for at zoome ud; eller på de grønne pile for tilstødende kort.


METAR-TAF: